Time;durP1;ratioP1;P1;durP2;ratioP2;P2;SDS_P1;SDS_P2;PMS_P1;PMS_P2;Temp;Humidity;BMP_temperature;BMP_pressure;BME280_temperature;BME280_humidity;BME280_pressure;Samples;Min_cycle;Max_cycle;Signal;HPM_P1;HPM_P2
2023/02/12 00:01:19;;;;;;;73.37;40.60;;;;;;;-1.18;87.54;101625.28;1445667;89;21450;-81
2023/02/12 00:03:46;;;;;;;68.28;38.50;;;;;;;-1.18;87.93;101623.98;1439422;90;21413;-81
2023/02/12 00:06:13;;;;;;;62.33;36.23;;;;;;;-1.21;88.30;101617.58;1430697;89;21605;-81
2023/02/12 00:08:39;;;;;;;75.45;41.13;;;;;;;-1.15;87.38;101613.08;1437777;90;21369;-81
2023/02/12 00:11:16;;;;;;;65.40;40.17;;;;;;;-1.15;87.47;101612.23;1439975;89;22270;-80
2023/02/12 00:13:42;;;;;;;66.20;38.17;;;;;;;-1.14;87.05;101599.64;1443549;90;22506;-80
2023/02/12 00:16:15;;;;;;;69.90;38.10;;;;;;;-1.13;87.27;101592.23;1443150;89;21524;-80
2023/02/12 00:18:42;;;;;;;65.97;36.03;;;;;;;-1.15;87.42;101591.45;1435755;89;21266;-81
2023/02/12 00:21:10;;;;;;;69.77;40.30;;;;;;;-1.21;87.98;101601.99;1432874;90;21648;-81
2023/02/12 00:23:39;;;;;;;61.30;36.08;;;;;;;-1.17;87.66;101601.88;1440730;90;22359;-78
2023/02/12 00:26:13;;;;;;;64.20;37.08;;;;;;;-1.17;87.54;101610.12;1439485;89;22315;-78
2023/02/12 00:28:40;;;;;;;68.20;37.50;;;;;;;-1.22;87.88;101609.39;1440828;90;21317;-78
2023/02/12 00:31:15;;;;;;;70.05;38.42;;;;;;;-1.29;88.50;101614.38;1440829;90;21398;-78
2023/02/12 00:33:41;;;;;;;66.60;34.55;;;;;;;-1.23;87.56;101620.69;1446389;89;21487;-78
2023/02/12 00:36:09;;;;;;;68.35;37.88;;;;;;;-1.29;88.16;101629.95;1427393;90;21538;-78
2023/02/12 00:38:35;;;;;;;67.05;37.35;;;;;;;-1.31;87.97;101626.09;1440681;89;21369;-77
2023/02/12 00:41:02;;;;;;;66.67;34.83;;;;;;;-1.25;87.40;101623.31;1440773;90;21391;-78
2023/02/12 00:43:28;;;;;;;64.55;34.70;;;;;;;-1.33;87.97;101625.72;1441375;90;21377;-79
2023/02/12 00:45:54;;;;;;;70.50;38.42;;;;;;;-1.28;87.76;101629.05;1435346;90;22337;-79
2023/02/12 00:48:20;;;;;;;63.52;35.38;;;;;;;-1.34;87.92;101630.07;1439146;90;22233;-79
2023/02/12 00:50:47;;;;;;;64.40;36.75;;;;;;;-1.30;87.70;101625.18;1442148;89;21377;-79
2023/02/12 00:53:14;;;;;;;68.62;39.70;;;;;;;-1.26;87.53;101633.77;1444922;89;21331;-76
2023/02/12 00:55:40;;;;;;;64.42;37.42;;;;;;;-1.21;87.06;101640.96;1452900;89;21455;-79
2023/02/12 00:58:07;;;;;;;64.00;36.23;;;;;;;-1.24;87.43;101641.89;1441280;90;21419;-79
2023/02/12 01:00:34;;;;;;;67.75;36.85;;;;;;;-1.22;87.18;101640.56;1450917;90;21562;-78
2023/02/12 01:03:00;;;;;;;73.92;37.25;;;;;;;-1.22;86.84;101645.77;1440712;89;22336;-79
2023/02/12 01:05:27;;;;;;;62.13;34.85;;;;;;;-1.20;86.72;101645.28;1460195;90;21501;-79
2023/02/12 01:07:53;;;;;;;67.03;35.80;;;;;;;-1.20;86.84;101643.53;1457068;90;21353;-79
2023/02/12 01:10:20;;;;;;;75.03;39.88;;;;;;;-1.17;86.35;101640.84;1455399;90;21511;-79
2023/02/12 01:12:48;;;;;;;66.10;37.98;;;;;;;-1.14;86.22;101642.51;1450761;90;21367;-80
2023/02/12 01:15:16;;;;;;;67.55;39.20;;;;;;;-1.08;85.69;101647.53;1434504;91;22444;-79
2023/02/12 01:17:42;;;;;;;65.97;35.10;;;;;;;-1.08;86.15;101652.72;1424293;92;21357;-80
2023/02/12 01:20:16;;;;;;;69.58;37.85;;;;;;;-1.08;86.01;101653.17;1426893;91;22472;-79
2023/02/12 01:22:42;;;;;;;68.35;36.25;;;;;;;-1.02;85.50;101648.65;1424815;92;21373;-78
2023/02/12 01:25:09;;;;;;;68.12;36.63;;;;;;;-1.06;85.55;101643.15;1395718;92;21557;-79
2023/02/12 01:27:35;;;;;;;69.77;38.92;;;;;;;-1.12;85.55;101646.34;1411396;92;21602;-79
2023/02/12 01:30:02;;;;;;;61.70;35.45;;;;;;;-1.16;85.51;101645.13;1426979;91;21371;-79
2023/02/12 01:32:28;;;;;;;74.32;39.38;;;;;;;-1.13;85.27;101646.80;1406764;93;22393;-80
2023/02/12 01:34:54;;;;;;;64.97;36.23;;;;;;;-1.14;85.34;101642.51;1402296;93;21393;-79
2023/02/12 01:37:20;;;;;;;70.47;37.17;;;;;;;-1.09;85.47;101654.05;1429782;92;22063;-79
2023/02/12 01:39:47;;;;;;;74.30;40.58;;;;;;;-1.15;85.61;101646.86;1425421;91;21429;-78
2023/02/12 01:42:17;;;;;;;65.75;37.75;;;;;;;-1.09;85.17;101644.95;1420933;92;21379;-78
2023/02/12 01:45:05;;;;;;;69.62;38.85;;;;;;;-1.17;85.74;101654.28;1419812;91;21585;-79
2023/02/12 01:47:32;;;;;;;80.47;43.13;;;;;;;-1.18;85.49;101651.27;1420157;92;21578;-77
2023/02/12 01:49:58;;;;;;;66.22;37.35;;;;;;;-1.17;85.44;101654.28;1420658;91;21408;-79
2023/02/12 01:52:34;;;;;;;69.45;40.88;;;;;;;-1.20;85.51;101651.32;1405114;93;21534;-79
2023/02/12 01:55:06;;;;;;;68.33;37.48;;;;;;;-1.18;85.42;101654.73;1417344;92;21489;-79
2023/02/12 01:57:34;;;;;;;;;;;;;;;-1.11;85.17;101655.86;1410286;92;21328;-80
2023/02/12 02:00:06;;;;;;;67.70;38.08;;;;;;;-1.05;85.06;101646.14;1417481;93;20918;-79
2023/02/12 02:02:33;;;;;;;68.15;36.40;;;;;;;-1.05;84.75;101651.34;1406879;93;22497;-78
2023/02/12 02:05:03;;;;;;;65.32;36.70;;;;;;;-1.02;84.59;101640.00;1406130;93;21417;-78
2023/02/12 02:07:29;;;;;;;64.00;36.50;;;;;;;-1.03;84.51;101647.41;1405619;93;21528;-79
2023/02/12 02:09:57;;;;;;;68.00;38.92;;;;;;;-1.17;85.17;101665.98;1408407;93;21380;-79
2023/02/12 02:15:11;;;;;;;71.80;37.58;;;;;;;-1.14;84.97;101669.79;1409620;93;21543;-79
2023/02/12 02:18:05;;;;;;;75.62;41.00;;;;;;;-1.14;85.03;101671.09;1407053;93;22327;-78
2023/02/12 02:21:09;;;;;;;68.15;38.90;;;;;;;-1.07;84.63;101675.20;1407756;93;21409;-80
2023/02/12 02:24:07;;;;;;;68.65;39.35;;;;;;;-1.05;84.46;101669.52;1407175;93;22400;-80
2023/02/12 02:27:14;;;;;;;75.47;41.18;;;;;;;-0.99;84.37;101665.91;1410599;93;22296;-79
2023/02/12 02:30:13;;;;;;;73.65;39.60;;;;;;;-0.93;84.61;101676.97;1409047;93;21358;-81
2023/02/12 02:33:08;;;;;;;69.20;39.48;;;;;;;-0.90;84.57;101679.93;1408178;93;21380;-80
2023/02/12 02:35:58;;;;;;;72.85;39.63;;;;;;;-0.91;84.32;101684.28;1398624;93;22253;-81
2023/02/12 02:38:51;;;;;;;77.72;40.15;;;;;;;-0.90;83.73;101678.63;1409306;91;22487;-82
2023/02/12 02:41:31;;;;;;;71.22;39.73;;;;;;;-0.85;83.76;101669.41;1401992;93;21505;-79
2023/02/12 02:44:00;;;;;;;54.88;30.50;;;;;;;-0.81;83.88;101680.11;1418586;92;21697;-82
2023/02/12 02:46:37;;;;;;;68.55;38.67;;;;;;;-0.84;83.47;101668.51;1402790;93;22071;-81
2023/02/12 02:49:07;;;;;;;71.25;37.33;;;;;;;-0.88;83.32;101682.05;1426520;91;21445;-81
2023/02/12 02:51:42;;;;;;;88.75;40.98;;;;;;;-0.88;83.43;101680.75;1410585;92;21468;-81
2023/02/12 02:54:20;;;;;;;73.10;38.63;;;;;;;-0.88;83.45;101670.34;1409981;92;21535;-82
2023/02/12 02:56:49;;;;;;;73.95;40.67;;;;;;;-0.84;83.48;101669.35;1424808;91;22612;-81
2023/02/12 02:59:24;;;;;;;66.60;36.20;;;;;;;-0.83;83.48;101671.53;1409654;93;22295;-83
2023/02/12 03:01:56;;;;;;;73.47;39.92;;;;;;;-0.91;84.02;101700.33;1409485;92;21704;-84
2023/02/12 03:04:35;;;;;;;69.92;36.65;;;;;;;-0.96;84.38;101703.50;1431649;91;21459;-83
2023/02/12 03:07:16;;;;;;;69.40;39.25;;;;;;;-1.02;84.51;101695.42;1412867;92;21551;-83
2023/02/12 03:09:53;;;;;;;73.42;38.58;;;;;;;-0.98;84.37;101698.36;1422078;91;21500;-83
2023/02/12 03:12:30;;;;;;;69.58;40.33;;;;;;;-0.96;84.62;101702.20;1423201;91;21431;-81
2023/02/12 03:15:17;;;;;;;71.80;41.95;;;;;;;-0.95;84.32;101699.58;1423264;92;21453;-81
2023/02/12 03:17:48;;;;;;;69.72;39.48;;;;;;;-0.93;84.23;101699.06;1423010;92;21652;-81
2023/02/12 03:20:22;;;;;;;78.62;42.80;;;;;;;-0.88;83.67;101704.14;1418931;92;21475;-81
2023/02/12 03:22:54;;;;;;;70.78;40.08;;;;;;;-0.85;84.06;101716.20;1420423;92;21586;-81
2023/02/12 03:25:34;;;;;;;77.17;42.67;;;;;;;-0.85;84.06;101714.45;1417101;91;22415;-83
2023/02/12 03:28:18;;;;;;;76.62;42.38;;;;;;;-0.83;84.09;101717.87;1423106;92;21342;-83
2023/02/12 03:30:53;;;;;;;80.80;45.12;;;;;;;-0.81;84.10;101722.55;1410450;92;21608;-81
2023/02/12 03:33:29;;;;;;;76.37;41.55;;;;;;;-0.78;84.07;101724.22;1423621;91;21465;-82
2023/02/12 03:36:03;;;;;;;72.50;37.78;;;;;;;-0.78;84.03;101731.56;1417976;92;21446;-81
2023/02/12 03:38:40;;;;;;;70.55;39.92;;;;;;;-0.88;84.98;101726.23;1419740;91;22287;-81
2023/02/12 03:41:39;;;;;;;75.12;42.48;;;;;;;-0.89;84.86;101734.94;1418756;91;21604;-81
2023/02/12 03:44:11;;;;;;;73.70;43.08;;;;;;;-0.87;84.57;101727.08;1425953;91;21379;-82
2023/02/12 03:47:15;;;;;;;66.20;38.45;;;;;;;-0.83;84.42;101735.22;1420080;92;22584;-82
2023/02/12 03:50:10;;;;;;;63.20;35.33;;;;;;;-0.83;84.66;101747.77;1392298;91;21489;-82
2023/02/12 03:52:37;;;;;;;70.97;40.75;;;;;;;-0.95;85.69;101748.08;1409558;92;21476;-82
2023/02/12 03:55:04;;;;;;;76.45;40.83;;;;;;;-0.96;85.92;101764.12;1410081;92;21660;-81
2023/02/12 03:57:36;;;;;;;74.12;41.90;;;;;;;-0.93;85.43;101764.03;1427810;91;21453;-81
2023/02/12 04:00:08;;;;;;;73.55;42.35;;;;;;;-0.89;85.50;101760.93;1424087;92;22311;-82
2023/02/12 04:02:34;;;;;;;81.65;44.15;;;;;;;-0.83;84.94;101762.52;1420969;91;21444;-81
2023/02/12 04:05:07;;;;;;;80.22;42.88;;;;;;;-0.79;84.88;101755.02;1422811;91;21444;-81
2023/02/12 04:07:35;;;;;;;74.55;42.05;;;;;;;-0.72;84.69;101751.34;1413603;92;21379;-81
2023/02/12 04:10:02;;;;;;;72.50;42.05;;;;;;;-0.67;84.55;101748.17;1417695;91;21371;-80
2023/02/12 04:12:52;;;;;;;71.80;42.58;;;;;;;-0.70;84.67;101759.95;1404329;93;22237;-80
2023/02/12 04:15:31;;;;;;;68.42;38.92;;;;;;;-0.72;84.88;101763.92;1417425;92;22407;-80
2023/02/12 04:18:21;;;;;;;71.42;42.60;;;;;;;-0.81;85.97;101765.90;1421439;91;21592;-81
2023/02/12 04:20:55;;;;;;;80.25;43.48;;;;;;;-0.82;85.51;101768.95;1424231;92;21430;-81
2023/02/12 04:24:04;;;;;;;70.28;37.25;;;;;;;-0.83;86.63;101776.81;1421092;91;21437;-81
2023/02/12 04:26:56;;;;;;;62.65;35.78;;;;;;;-0.99;88.08;101787.59;1416805;92;21545;-80
2023/02/12 04:29:43;;;;;;;63.48;36.88;;;;;;;-1.01;88.53;101781.58;1419896;91;21607;-80
2023/02/12 04:32:29;;;;;;;72.32;40.38;;;;;;;-1.02;88.70;101786.83;1415854;92;21761;-80
2023/02/12 04:35:06;;;;;;;77.65;41.48;;;;;;;-1.02;88.76;101790.73;1402671;92;21380;-80
2023/02/12 04:37:40;;;;;;;76.82;42.95;;;;;;;-0.99;88.50;101786.30;1405813;93;21476;-80
2023/02/12 04:40:12;;;;;;;75.97;40.95;;;;;;;-1.01;89.25;101795.87;1394321;93;21379;-80
2023/02/12 04:42:46;;;;;;;78.80;42.13;;;;;;;-1.02;89.64;101810.22;1408439;93;22384;-81
2023/02/12 04:45:22;;;;;;;76.33;39.27;;;;;;;-1.06;90.02;101810.75;1405595;92;21484;-81
2023/02/12 04:47:49;;;;;;;69.97;39.65;;;;;;;-0.97;89.21;101800.11;1407029;93;23034;-80
2023/02/12 04:50:15;;;;;;;68.60;37.88;;;;;;;-0.96;89.65;101805.70;1403413;93;21372;-80
2023/02/12 04:52:41;;;;;;;65.50;37.42;;;;;;;-0.97;89.91;101813.11;1409481;93;21517;-81
2023/02/12 04:55:08;;;;;;;69.15;39.48;;;;;;;-0.96;90.24;101818.70;1403504;93;21475;-80
2023/02/12 04:57:34;;;;;;;75.97;39.92;;;;;;;-1.00;90.61;101830.08;1409912;93;22996;-82
2023/02/12 05:00:00;;;;;;;89.92;39.88;;;;;;;-1.03;91.18;101837.95;1403126;93;21394;-81
2023/02/12 05:02:26;;;;;;;69.95;38.75;;;;;;;-1.03;91.50;101843.61;1409680;93;21380;-79
2023/02/12 05:04:53;;;;;;;76.50;42.98;;;;;;;-1.01;91.65;101844.40;1412542;93;21387;-78
2023/02/12 05:07:19;;;;;;;74.95;41.98;;;;;;;-1.01;91.95;101849.14;1402217;93;21453;-80
2023/02/12 05:09:45;;;;;;;76.67;44.77;;;;;;;-1.02;92.22;101853.09;1405396;93;22133;-80
2023/02/12 05:12:12;;;;;;;78.28;40.65;;;;;;;-0.94;91.16;101846.81;1405146;93;21425;-80
2023/02/12 05:14:38;;;;;;;81.40;43.45;;;;;;;-0.93;91.46;101853.70;1402040;93;21982;-81
2023/02/12 05:17:04;;;;;;;84.70;42.40;;;;;;;-0.94;92.34;101860.26;1407609;93;21387;-81
2023/02/12 05:19:31;;;;;;;73.70;42.43;;;;;;;-0.93;92.31;101857.61;1408318;93;21371;-81
2023/02/12 05:21:57;;;;;;;73.12;39.83;;;;;;;-0.87;91.66;101866.14;1407552;93;21366;-81
2023/02/12 05:24:24;;;;;;;78.42;45.05;;;;;;;-0.86;92.13;101867.42;1411559;93;21336;-81
2023/02/12 05:26:51;;;;;;;70.12;40.08;;;;;;;-0.87;92.20;101872.19;1405824;93;21491;-81
2023/02/12 05:29:17;;;;;;;70.17;41.75;;;;;;;-0.87;92.51;101876.55;1408062;93;21373;-81
2023/02/12 05:31:44;;;;;;;77.20;42.78;;;;;;;-0.83;92.28;101882.09;1404787;93;22482;-82
2023/02/12 05:34:12;;;;;;;76.22;41.35;;;;;;;-0.84;92.44;101885.56;1405432;93;21412;-80
2023/02/12 05:36:39;;;;;;;83.55;42.73;;;;;;;-0.88;92.85;101877.45;1410145;93;21538;-82
2023/02/12 05:39:06;;;;;;;80.25;44.50;;;;;;;-0.86;92.43;101879.53;1400797;93;21454;-80
2023/02/12 05:41:36;;;;;;;78.28;44.15;;;;;;;-0.80;91.71;101882.86;1407831;93;21396;-78
2023/02/12 05:44:04;;;;;;;76.37;43.02;;;;;;;-0.78;92.08;101893.20;1399330;93;21358;-81
2023/02/12 05:46:31;;;;;;;75.72;42.48;;;;;;;-0.83;92.84;101901.59;1404064;93;21425;-80
2023/02/12 05:48:57;;;;;;;84.28;46.65;;;;;;;-0.77;91.43;101897.53;1416556;93;21544;-81
2023/02/12 05:51:26;;;;;;;70.92;41.48;;;;;;;-0.71;91.12;101905.16;1408902;93;21402;-80
2023/02/12 05:53:59;;;;;;;78.00;46.28;;;;;;;-0.79;92.61;101912.30;1406981;93;21523;-80
2023/02/12 05:56:30;;;;;;;80.15;44.15;;;;;;;-0.77;92.02;101914.42;1414837;93;22489;-80
2023/02/12 05:59:07;;;;;;;80.05;42.75;;;;;;;-0.75;91.85;101915.22;1411277;93;21535;-80
2023/02/12 06:01:40;;;;;;;79.70;44.05;;;;;;;-0.74;92.06;101928.65;1405122;93;21387;-80
2023/02/12 06:04:11;;;;;;;74.60;43.35;;;;;;;-0.73;92.11;101932.94;1401884;93;21432;-80
2023/02/12 06:06:40;;;;;;;;;;;;;;;-0.72;91.97;101942.02;1417741;93;21446;-79
2023/02/12 06:09:05;;;;;;;69.72;39.15;;;;;;;-0.79;92.79;101950.00;1407045;93;20859;-80
2023/02/12 06:11:33;;;;;;;83.60;45.52;;;;;;;-0.82;93.38;101948.33;1409017;93;21350;-80
2023/02/12 06:14:05;;;;;;;80.12;44.23;;;;;;;-0.75;92.09;101934.72;1411252;93;21561;-81
2023/02/12 06:16:33;;;;;;;78.42;44.53;;;;;;;-0.72;92.29;101936.82;1407413;93;22342;-82
2023/02/12 06:19:03;;;;;;;76.92;44.00;;;;;;;-0.68;92.31;101938.89;1419427;93;21526;-83
2023/02/12 06:21:31;;;;;;;76.00;42.53;;;;;;;-0.73;93.03;101945.94;1413409;93;21631;-82
2023/02/12 06:23:57;;;;;;;87.50;48.23;;;;;;;-0.73;93.49;101957.64;1405548;93;21387;-80
2023/02/12 06:26:24;;;;;;;76.55;44.25;;;;;;;-0.66;92.83;101960.52;1402269;93;21343;-80
2023/02/12 06:28:52;;;;;;;74.12;40.98;;;;;;;-0.62;92.57;101951.73;1412611;93;21521;-80
2023/02/12 06:31:28;;;;;;;76.28;44.15;;;;;;;-0.64;93.02;101960.46;1410232;93;21328;-80
2023/02/12 06:33:57;;;;;;;75.40;42.17;;;;;;;-0.58;92.08;101955.09;1410938;93;21328;-78
2023/02/12 06:36:24;;;;;;;79.17;44.93;;;;;;;-0.55;92.31;101964.97;1407255;93;21469;-81
2023/02/12 06:38:51;;;;;;;75.70;42.62;;;;;;;-0.50;91.82;101965.72;1410525;93;21342;-81
2023/02/12 06:41:19;;;;;;;74.58;42.40;;;;;;;-0.47;92.20;101966.09;1405856;93;21569;-81
2023/02/12 06:43:46;;;;;;;66.90;39.50;;;;;;;-0.54;92.28;101986.20;1411391;93;21424;-80
2023/02/12 06:46:13;;;;;;;67.35;38.63;;;;;;;-0.59;92.51;101981.55;1395856;93;21423;-80
2023/02/12 06:48:39;;;;;;;74.53;40.45;;;;;;;-0.55;92.18;101990.98;1410808;93;22863;-80
2023/02/12 06:51:09;;;;;;;75.17;42.43;;;;;;;-0.57;92.43;101987.58;1409476;93;21572;-80
2023/02/12 06:53:36;;;;;;;73.67;40.93;;;;;;;-0.51;91.86;101991.33;1408650;92;22326;-81
2023/02/12 06:56:06;;;;;;;70.90;38.98;;;;;;;-0.41;91.20;101987.19;1405514;93;21707;-81
2023/02/12 06:58:35;;;;;;;69.20;39.98;;;;;;;-0.39;91.22;101993.22;1410031;93;21568;-80
2023/02/12 07:01:17;;;;;;;70.87;39.80;;;;;;;-0.36;91.26;102015.25;1408597;92;22408;-80
2023/02/12 07:03:51;;;;;;;76.25;40.58;;;;;;;-0.41;91.38;102027.51;1402376;93;21498;-79
2023/02/12 07:06:18;;;;;;;68.20;38.53;;;;;;;-0.38;91.22;102038.69;1427945;91;21416;-81
2023/02/12 07:08:45;;;;;;;80.23;42.57;;;;;;;-0.38;91.00;102033.94;1402868;93;22273;-80
2023/02/12 07:11:11;;;;;;;72.37;39.17;;;;;;;-0.35;90.98;102033.86;1397099;93;21618;-80
2023/02/12 07:13:40;;;;;;;79.70;44.23;;;;;;;-0.31;90.68;102048.52;1429931;92;22087;-80
2023/02/12 07:16:13;;;;;;;88.05;46.28;;;;;;;-0.25;90.34;102047.05;1410280;92;22275;-80
2023/02/12 07:18:39;;;;;;;76.90;43.97;;;;;;;-0.19;90.12;102045.59;1428327;91;21507;-80
2023/02/12 07:21:07;;;;;;;79.10;45.03;;;;;;;-0.07;89.86;102054.38;1404104;93;21624;-80
2023/02/12 07:23:35;;;;;;;80.37;44.40;;;;;;;0.05;89.43;102056.27;1416713;92;22436;-79
2023/02/12 07:26:09;;;;;;;75.70;44.23;;;;;;;0.12;88.85;102048.71;1404543;92;21514;-82
2023/02/12 07:28:35;;;;;;;82.70;48.40;;;;;;;0.20;88.56;102050.63;1412708;92;22178;-83
2023/02/12 07:31:12;;;;;;;79.77;45.80;;;;;;;0.28;88.19;102047.37;1410091;92;21833;-84
2023/02/12 07:33:39;;;;;;;77.50;43.17;;;;;;;0.40;88.14;102048.37;1416886;91;21648;-80
2023/02/12 07:36:10;;;;;;;80.30;45.60;;;;;;;0.43;86.90;102055.21;1405477;93;21807;-79
2023/02/12 07:38:38;;;;;;;77.40;44.98;;;;;;;0.47;86.36;102050.80;1418127;92;21535;-80
2023/02/12 07:41:18;;;;;;;77.83;43.43;;;;;;;0.46;86.15;102052.52;1413743;91;22398;-80
2023/02/12 07:43:47;;;;;;;75.47;44.83;;;;;;;0.50;85.61;102042.89;1421783;92;21663;-81
2023/02/12 07:46:18;;;;;;;83.13;45.67;;;;;;;0.52;86.00;102054.98;1434392;91;21709;-79
2023/02/12 07:48:46;;;;;;;79.43;44.67;;;;;;;0.63;85.66;102059.86;1403697;93;22662;-79
2023/02/12 07:51:18;;;;;;;77.13;44.43;;;;;;;0.67;84.84;102058.89;1421306;92;22124;-76
2023/02/12 07:53:44;;;;;;;76.33;42.63;;;;;;;0.76;84.84;102061.23;1419922;91;21536;-78
2023/02/12 07:56:21;;;;;;;70.30;42.37;;;;;;;0.87;84.79;102072.20;1414999;92;21618;-77
2023/02/12 07:58:51;;;;;;;66.97;37.83;;;;;;;0.98;83.83;102065.37;1422590;91;21761;-77
2023/02/12 08:01:27;;;;;;;75.17;42.13;;;;;;;0.88;82.39;102074.34;1428084;92;21579;-77
2023/02/12 08:03:57;;;;;;;71.37;42.43;;;;;;;0.93;82.13;102070.31;1404991;92;21694;-79
2023/02/12 08:06:27;;;;;;;75.13;41.63;;;;;;;0.92;82.07;102069.89;1406812;92;21798;-85
2023/02/12 08:08:57;;;;;;;75.20;42.07;;;;;;;0.94;82.39;102070.70;1351153;91;21580;-84
2023/02/12 08:11:24;;;;;;;75.47;42.67;;;;;;;1.00;82.38;102063.55;1338273;93;21649;-87
2023/02/12 08:13:51;;;;;;;68.87;40.50;;;;;;;1.07;82.01;102062.94;1498972;92;21405;-84
2023/02/12 08:20:56;;;;;;;78.30;47.03;;;;;;;1.23;81.54;102066.75;1485312;92;21262;-88
2023/02/12 08:23:22;;;;;;;71.70;43.40;;;;;;;1.47;82.04;102079.95;1355292;91;21580;-83
2023/02/12 08:25:49;;;;;;;80.33;44.57;;;;;;;1.53;79.28;102084.52;1349709;92;21549;-85
2023/02/12 08:28:15;;;;;;;73.37;42.67;;;;;;;1.67;80.01;102091.03;1359831;91;21714;-86
2023/02/12 08:30:41;;;;;;;75.97;44.00;;;;;;;1.54;77.72;102079.69;1498987;92;22244;-86
2023/02/12 08:33:07;;;;;;;73.13;41.97;;;;;;;1.64;78.63;102088.52;1338774;92;21483;-85
2023/02/12 08:35:33;;;;;;;80.40;41.33;;;;;;;1.64;77.27;102089.83;1354547;91;21448;-86
2023/02/12 08:37:59;;;;;;;66.07;41.23;;;;;;;1.63;76.26;102088.13;1350502;92;22355;-87
2023/02/12 08:40:26;;;;;;;67.53;40.70;;;;;;;1.70;76.64;102093.12;1344594;92;21610;-87
2023/02/12 08:42:52;;;;;;;72.23;40.07;;;;;;;1.75;76.67;102095.09;1354389;91;21394;-90
2023/02/12 08:45:18;;;;;;;79.47;42.47;;;;;;;1.93;77.09;102094.97;1341871;93;21635;-88
2023/02/12 08:47:47;;;;;;;70.30;41.07;;;;;;;2.12;77.19;102096.48;1417815;92;21633;-89
2023/02/12 08:50:13;;;;;;;72.27;42.87;;;;;;;2.25;75.84;102105.62;1405559;92;21658;-85
2023/02/12 08:52:39;;;;;;;73.57;42.53;;;;;;;2.33;75.50;102097.95;1391725;92;21724;-88
2023/02/12 08:55:06;;;;;;;63.90;39.80;;;;;;;2.29;75.36;102102.44;1408293;92;21819;-91
2023/02/12 08:57:34;;;;;;;67.50;39.10;;;;;;;2.30;75.08;102108.52;1427701;91;21902;-87
2023/02/12 09:00:00;;;;;;;65.53;36.70;;;;;;;2.36;75.37;102110.48;1417030;92;21728;-88
2023/02/12 09:02:28;;;;;;;64.73;38.80;;;;;;;2.41;74.89;102118.98;1425426;91;21766;-88
2023/02/12 09:04:54;;;;;;;63.23;35.10;;;;;;;2.42;74.41;102118.09;1416507;92;22891;-86
2023/02/12 09:07:20;;;;;;;74.60;41.00;;;;;;;2.41;74.18;102128.59;1406876;92;21879;-86
2023/02/12 09:09:47;;;;;;;70.53;42.00;;;;;;;2.35;74.89;102131.42;1404210;92;21743;-86
2023/02/12 09:12:13;;;;;;;64.67;37.47;;;;;;;2.35;74.89;102131.42;1407764;92;22612;-87
2023/02/12 09:14:39;;;;;;;68.17;39.77;;;;;;;2.21;74.80;102137.12;1408813;92;22570;-86
2023/02/12 09:17:05;;;;;;;63.30;38.10;;;;;;;2.20;75.08;102141.48;1422157;91;22768;-87
2023/02/12 09:19:31;;;;;;;62.23;36.37;;;;;;;2.24;75.11;102147.03;1407934;93;22630;-85
2023/02/12 09:21:57;;;;;;;181.00;93.97;;;;;;;2.28;74.64;102149.54;1417387;92;21700;-86
2023/02/12 09:24:26;;;;;;;67.40;40.70;;;;;;;2.42;75.19;102149.92;1410119;92;22242;-84
2023/02/12 09:26:53;;;;;;;63.83;36.33;;;;;;;2.60;74.55;102146.65;1413410;91;21647;-85
2023/02/12 09:29:19;;;;;;;78.90;45.47;;;;;;;2.80;73.48;102151.63;1418169;92;21755;-83
2023/02/12 09:31:45;;;;;;;64.77;35.90;;;;;;;3.07;73.57;102144.05;1353175;91;22100;-83
2023/02/12 09:34:12;;;;;;;50.90;32.03;;;;;;;3.59;72.09;102147.28;1355451;92;22868;-85
2023/02/12 09:36:38;;;;;;;63.13;38.83;;;;;;;4.19;70.98;102146.62;1338699;92;21915;-85
2023/02/12 09:39:04;;;;;;;52.10;31.97;;;;;;;4.86;69.84;102146.34;1338684;92;21330;-86
2023/02/12 09:42:08;;;;;;;49.10;29.00;;;;;;;5.28;66.69;102147.91;1354840;91;22199;-90
2023/02/12 09:44:45;;;;;;;49.20;31.33;;;;;;;5.11;65.12;102144.74;1482504;93;21284;-86
2023/02/12 09:47:32;;;;;;;47.33;31.73;;;;;;;6.04;65.00;102158.30;1349110;94;21486;-83
2023/02/12 09:50:18;;;;;;;44.37;26.60;;;;;;;6.55;61.38;102163.18;1462536;91;21394;-88
2023/02/12 09:52:49;;;;;;;41.63;28.20;;;;;;;6.83;59.87;102165.70;1482691;93;21382;-86
2023/02/12 09:55:18;;;;;;;38.48;27.02;;;;;;;6.52;60.77;102172.55;1348547;92;21636;-84
2023/02/12 09:57:45;;;;;;;41.40;27.77;;;;;;;6.32;61.04;102170.46;1352399;91;22134;-91
2023/02/12 10:00:19;;;;;;;34.10;23.53;;;;;;;7.20;60.43;102168.53;1336443;93;21341;-87
2023/02/12 10:02:48;;;;;;;36.80;24.97;;;;;;;7.55;58.54;102171.86;1345862;93;21513;-87
2023/02/12 10:05:37;;;;;;;34.53;22.73;;;;;;;8.06;57.05;102171.63;1336101;93;21322;-88
2023/02/12 10:08:30;;;;;;;40.80;27.13;;;;;;;6.78;58.45;102174.67;1486121;92;21321;-90
2023/02/12 10:11:26;;;;;;;36.70;25.83;;;;;;;7.50;58.38;102177.84;1364993;95;21507;-87
2023/02/12 10:13:57;;;;;;;36.37;26.77;;;;;;;7.32;58.21;102177.55;1406429;95;21350;-88
2023/02/12 10:16:47;;;;;;;31.23;20.97;;;;;;;7.32;58.93;102176.23;1351101;91;21282;-85
2023/02/12 10:20:10;;;;;;;36.10;24.00;;;;;;;6.38;58.95;102175.03;1504816;91;21217;-91
2023/02/12 10:23:03;;;;;;;45.93;26.17;;;;;;;6.04;60.97;102181.96;1383142;92;22465;-90
2023/02/12 10:25:56;;;;;;;39.73;26.83;;;;;;;5.87;63.12;102186.25;1427446;91;21652;-84
2023/02/12 10:28:38;;;;;;;34.20;21.90;;;;;;;5.77;63.05;102191.55;1418562;92;21589;-87
2023/02/12 10:31:30;;;;;;;33.50;21.47;;;;;;;5.39;63.50;102198.15;1420140;92;21424;-87
2023/02/12 10:33:57;;;;;;;43.47;26.00;;;;;;;5.52;63.27;102193.16;1417430;92;21423;-90
2023/02/12 10:36:43;;;;;;;43.53;28.13;;;;;;;6.40;63.01;102199.02;1426717;91;22562;-91
2023/02/12 10:39:20;;;;;;;41.17;26.13;;;;;;;6.72;62.22;102193.41;1417917;92;22252;-90
2023/02/12 10:41:52;;;;;;;38.00;25.20;;;;;;;6.91;60.54;102196.42;1405220;92;21653;-86
2023/02/12 10:44:19;;;;;;;48.40;27.73;;;;;;;7.20;59.73;102196.18;1407419;92;21587;-89
2023/02/12 10:46:45;;;;;;;41.27;26.47;;;;;;;7.43;59.84;102197.56;1423426;91;21408;-89
2023/02/12 10:49:16;;;;;;;38.83;25.23;;;;;;;7.92;56.98;102194.83;1404403;93;21473;-86
2023/02/12 10:51:54;;;;;;;28.45;18.87;;;;;;;8.47;56.71;102195.61;1405980;93;21467;-90
2023/02/12 10:54:40;;;;;;;27.17;18.57;;;;;;;8.34;53.33;102196.78;1380870;93;21652;-87
2023/02/12 10:57:18;;;;;;;29.50;18.43;;;;;;;8.70;52.49;102202.63;1421353;92;21402;-87
2023/02/12 10:59:46;;;;;;;31.10;21.20;;;;;;;8.73;50.90;102207.73;1406109;93;21506;-80
2023/02/12 11:02:32;;;;;;;28.33;18.87;;;;;;;8.68;51.92;102202.70;1401685;92;21417;-79
2023/02/12 11:05:01;;;;;;;38.87;23.73;;;;;;;8.59;52.62;102210.70;1504469;91;21357;-80
2023/02/12 11:11:33;;;;;;;33.57;19.93;;;;;;;8.85;52.21;102209.62;1504488;91;21431;-78
2023/02/12 11:14:20;;;;;;;32.17;21.63;;;;;;;9.33;50.78;102195.66;1483394;93;21409;-76
2023/02/12 11:16:56;;;;;;;32.93;22.93;;;;;;;9.75;51.93;102198.30;1498941;92;21218;-77
2023/02/12 11:19:33;;;;;;;27.73;20.27;;;;;;;10.12;48.29;102200.70;1499032;91;21291;-79
2023/02/12 11:22:17;;;;;;;23.37;17.00;;;;;;;10.25;47.57;102206.89;1352391;92;21424;-78
2023/02/12 11:24:43;;;;;;;24.40;17.73;;;;;;;8.52;49.22;102210.70;1500270;91;21358;-83
2023/02/12 11:27:21;;;;;;;25.70;19.43;;;;;;;8.99;49.39;102207.47;1423043;91;21696;-85
2023/02/12 11:29:56;;;;;;;24.60;18.57;;;;;;;9.35;49.66;102198.19;1422027;91;22511;-84
2023/02/12 11:32:22;;;;;;;24.53;18.27;;;;;;;8.80;48.82;102203.76;1400249;92;21953;-80
2023/02/12 11:35:22;;;;;;;22.73;16.70;;;;;;;9.04;50.56;102202.76;1404210;93;21350;-80
2023/02/12 11:37:46;;;;;;;29.00;18.60;;;;;;;7.82;51.25;102205.50;1405899;92;21615;-79
2023/02/12 11:40:24;;;;;;;21.30;14.27;;;;;;;7.80;51.94;102216.63;1427442;91;21600;-80
2023/02/12 11:42:55;;;;;;;18.83;13.00;;;;;;;7.23;52.33;102220.56;1477903;92;21432;-81
2023/02/12 11:45:30;;;;;;;19.40;13.20;;;;;;;6.48;53.22;102221.84;1418108;92;21424;-78
2023/02/12 11:47:57;;;;;;;14.03;6.43;;;;;;;6.02;54.98;102224.11;1405041;93;22556;-79